FAOR/JNB METAR and TAF weather

Enter ICAO airport designator
Station Type Date Time Source
FAOR METAR 2020/09/22 17:30 UTC NOAA

FAOR 221730Z 35008KT CAVOK 15/07 Q1031 NOSIG


Station Type Date Time Source
FAOR Decoded METAR 2020/09/22 17:30 UTC NOAA

Station name not available
Sep 22, 2020 - 01:30 PM EDT / 2020.09.22 1730 UTC
Wind: from the N (350 degrees) at 9 MPH (8 KT):0
Visibility: greater than 7 mile(s):0
Temperature: 59 F (15 C)
Dew Point: 44 F (7 C)
Relative Humidity: 58%
Pressure (altimeter): 30.45 in. Hg (1031 hPa)
ob: FAOR 221730Z 35008KT CAVOK 15/07 Q1031 NOSIG
cycle: 17

Station Type Date Time Source
FAOR TAF 2020/09/22 18:00 UTC NOAA

TAF FAOR 221600Z 2218/2324 36010KT CAVOK TX24/2313Z TN10/2304Z
BECMG 2304/2306 VRB03KT
BECMG 2313/2315 SCT040
BECMG 2317/2318 CAVOK

Example: see airport list